sensor_id;sensor_type;location;lat;lon;timestamp;P1;durP1;ratioP1;P2;durP2;ratioP2
25972;SDS011;13765;51.166;4.466;2022-12-07T00:01:37;10.23;;;4.90;;
25972;SDS011;13765;51.166;4.466;2022-12-07T00:04:05;12.88;;;5.53;;
25972;SDS011;13765;51.166;4.466;2022-12-07T00:06:37;14.00;;;4.70;;
25972;SDS011;13765;51.166;4.466;2022-12-07T00:09:05;14.70;;;5.68;;
25972;SDS011;13765;51.166;4.466;2022-12-07T00:11:32;9.48;;;4.38;;
25972;SDS011;13765;51.166;4.466;2022-12-07T00:13:59;10.35;;;5.57;;
25972;SDS011;13765;51.166;4.466;2022-12-07T00:16:28;13.95;;;5.63;;
25972;SDS011;13765;51.166;4.466;2022-12-07T00:18:56;13.30;;;5.32;;
25972;SDS011;13765;51.166;4.466;2022-12-07T00:21:24;14.65;;;4.85;;
25972;SDS011;13765;51.166;4.466;2022-12-07T00:23:51;15.40;;;5.43;;
25972;SDS011;13765;51.166;4.466;2022-12-07T00:26:19;12.10;;;4.63;;
25972;SDS011;13765;51.166;4.466;2022-12-07T00:28:50;16.20;;;5.20;;
25972;SDS011;13765;51.166;4.466;2022-12-07T00:31:21;17.60;;;5.55;;
25972;SDS011;13765;51.166;4.466;2022-12-07T00:33:51;10.52;;;5.53;;
25972;SDS011;13765;51.166;4.466;2022-12-07T00:36:20;13.85;;;5.93;;
25972;SDS011;13765;51.166;4.466;2022-12-07T00:38:49;12.38;;;5.00;;
25972;SDS011;13765;51.166;4.466;2022-12-07T00:41:18;8.90;;;4.10;;
25972;SDS011;13765;51.166;4.466;2022-12-07T00:43:45;12.00;;;4.47;;
25972;SDS011;13765;51.166;4.466;2022-12-07T00:46:13;12.95;;;5.25;;
25972;SDS011;13765;51.166;4.466;2022-12-07T00:48:41;10.77;;;4.93;;
25972;SDS011;13765;51.166;4.466;2022-12-07T00:51:09;11.90;;;5.07;;
25972;SDS011;13765;51.166;4.466;2022-12-07T00:53:37;15.40;;;5.30;;
25972;SDS011;13765;51.166;4.466;2022-12-07T00:56:26;16.00;;;5.85;;
25972;SDS011;13765;51.166;4.466;2022-12-07T00:58:59;12.45;;;5.20;;
25972;SDS011;13765;51.166;4.466;2022-12-07T01:01:27;12.80;;;5.03;;
25972;SDS011;13765;51.166;4.466;2022-12-07T01:03:56;16.33;;;4.75;;
25972;SDS011;13765;51.166;4.466;2022-12-07T01:06:25;16.35;;;5.70;;
25972;SDS011;13765;51.166;4.466;2022-12-07T01:08:58;12.90;;;4.43;;
25972;SDS011;13765;51.166;4.466;2022-12-07T01:11:29;16.83;;;6.05;;
25972;SDS011;13765;51.166;4.466;2022-12-07T01:14:01;18.80;;;6.20;;
25972;SDS011;13765;51.166;4.466;2022-12-07T01:16:28;14.88;;;5.47;;
25972;SDS011;13765;51.166;4.466;2022-12-07T01:18:58;17.70;;;6.40;;
25972;SDS011;13765;51.166;4.466;2022-12-07T01:21:29;17.23;;;7.38;;
25972;SDS011;13765;51.166;4.466;2022-12-07T01:24:01;19.88;;;6.88;;
25972;SDS011;13765;51.166;4.466;2022-12-07T01:26:30;17.20;;;6.85;;
25972;SDS011;13765;51.166;4.466;2022-12-07T01:28:58;13.50;;;5.57;;
25972;SDS011;13765;51.166;4.466;2022-12-07T01:31:29;16.42;;;6.32;;
25972;SDS011;13765;51.166;4.466;2022-12-07T01:33:58;11.55;;;5.32;;
25972;SDS011;13765;51.166;4.466;2022-12-07T01:39:02;11.40;;;4.85;;
25972;SDS011;13765;51.166;4.466;2022-12-07T01:41:32;13.73;;;6.07;;
25972;SDS011;13765;51.166;4.466;2022-12-07T01:44:09;20.08;;;6.32;;
25972;SDS011;13765;51.166;4.466;2022-12-07T01:46:48;14.50;;;6.43;;
25972;SDS011;13765;51.166;4.466;2022-12-07T01:49:20;15.32;;;6.13;;
25972;SDS011;13765;51.166;4.466;2022-12-07T01:51:47;14.93;;;4.72;;
25972;SDS011;13765;51.166;4.466;2022-12-07T01:54:14;15.80;;;6.22;;
25972;SDS011;13765;51.166;4.466;2022-12-07T01:56:44;12.45;;;6.00;;
25972;SDS011;13765;51.166;4.466;2022-12-07T01:59:16;13.55;;;6.25;;
25972;SDS011;13765;51.166;4.466;2022-12-07T02:01:44;14.55;;;5.78;;
25972;SDS011;13765;51.166;4.466;2022-12-07T02:04:11;12.10;;;5.13;;
25972;SDS011;13765;51.166;4.466;2022-12-07T02:06:40;13.70;;;5.70;;
25972;SDS011;13765;51.166;4.466;2022-12-07T02:09:09;15.90;;;5.50;;
25972;SDS011;13765;51.166;4.466;2022-12-07T02:11:35;16.42;;;6.00;;
25972;SDS011;13765;51.166;4.466;2022-12-07T02:14:01;15.60;;;5.97;;
25972;SDS011;13765;51.166;4.466;2022-12-07T02:19:12;15.43;;;5.88;;
25972;SDS011;13765;51.166;4.466;2022-12-07T02:25:04;23.80;;;7.40;;
25972;SDS011;13765;51.166;4.466;2022-12-07T02:30:27;15.82;;;5.15;;
25972;SDS011;13765;51.166;4.466;2022-12-07T02:32:57;15.43;;;6.78;;
25972;SDS011;13765;51.166;4.466;2022-12-07T02:35:37;12.63;;;5.15;;
25972;SDS011;13765;51.166;4.466;2022-12-07T02:40:41;12.52;;;5.43;;
25972;SDS011;13765;51.166;4.466;2022-12-07T02:43:30;13.77;;;5.47;;
25972;SDS011;13765;51.166;4.466;2022-12-07T02:46:06;15.07;;;6.32;;
25972;SDS011;13765;51.166;4.466;2022-12-07T02:48:36;22.98;;;6.57;;
25972;SDS011;13765;51.166;4.466;2022-12-07T02:51:05;10.65;;;5.28;;
25972;SDS011;13765;51.166;4.466;2022-12-07T02:53:38;11.27;;;4.80;;
25972;SDS011;13765;51.166;4.466;2022-12-07T03:10:50;12.45;;;5.25;;
25972;SDS011;13765;51.166;4.466;2022-12-07T03:18:43;15.68;;;5.43;;
25972;SDS011;13765;51.166;4.466;2022-12-07T03:21:21;11.57;;;4.47;;
25972;SDS011;13765;51.166;4.466;2022-12-07T03:23:55;17.65;;;6.18;;
25972;SDS011;13765;51.166;4.466;2022-12-07T03:26:36;14.18;;;4.80;;
25972;SDS011;13765;51.166;4.466;2022-12-07T03:29:06;16.75;;;5.43;;
25972;SDS011;13765;51.166;4.466;2022-12-07T03:31:38;14.60;;;5.35;;
25972;SDS011;13765;51.166;4.466;2022-12-07T03:34:11;14.68;;;5.15;;
25972;SDS011;13765;51.166;4.466;2022-12-07T03:36:57;14.63;;;5.80;;
25972;SDS011;13765;51.166;4.466;2022-12-07T03:39:39;12.40;;;5.28;;
25972;SDS011;13765;51.166;4.466;2022-12-07T03:42:13;15.77;;;5.43;;
25972;SDS011;13765;51.166;4.466;2022-12-07T03:44:39;15.88;;;5.55;;
25972;SDS011;13765;51.166;4.466;2022-12-07T03:47:19;10.13;;;4.63;;
25972;SDS011;13765;51.166;4.466;2022-12-07T03:52:43;13.55;;;4.68;;
25972;SDS011;13765;51.166;4.466;2022-12-07T03:55:20;9.10;;;4.28;;
25972;SDS011;13765;51.166;4.466;2022-12-07T03:57:51;14.48;;;4.68;;
25972;SDS011;13765;51.166;4.466;2022-12-07T04:00:21;14.23;;;5.18;;
25972;SDS011;13765;51.166;4.466;2022-12-07T04:02:51;10.95;;;3.85;;
25972;SDS011;13765;51.166;4.466;2022-12-07T04:05:18;11.52;;;4.32;;
25972;SDS011;13765;51.166;4.466;2022-12-07T04:07:46;8.98;;;3.55;;
25972;SDS011;13765;51.166;4.466;2022-12-07T04:10:16;9.93;;;4.15;;
25972;SDS011;13765;51.166;4.466;2022-12-07T04:12:42;10.55;;;4.03;;
25972;SDS011;13765;51.166;4.466;2022-12-07T04:15:10;14.30;;;4.53;;
25972;SDS011;13765;51.166;4.466;2022-12-07T04:17:39;15.13;;;4.25;;
25972;SDS011;13765;51.166;4.466;2022-12-07T04:20:08;11.20;;;3.72;;
25972;SDS011;13765;51.166;4.466;2022-12-07T04:22:34;11.02;;;4.35;;
25972;SDS011;13765;51.166;4.466;2022-12-07T04:25:00;13.68;;;4.43;;
25972;SDS011;13765;51.166;4.466;2022-12-07T04:27:33;8.35;;;3.70;;
25972;SDS011;13765;51.166;4.466;2022-12-07T04:29:59;9.57;;;3.42;;
25972;SDS011;13765;51.166;4.466;2022-12-07T04:32:25;11.02;;;4.03;;
25972;SDS011;13765;51.166;4.466;2022-12-07T04:34:51;8.55;;;3.28;;
25972;SDS011;13765;51.166;4.466;2022-12-07T04:37:17;10.23;;;4.05;;
25972;SDS011;13765;51.166;4.466;2022-12-07T04:39:43;13.60;;;3.95;;
25972;SDS011;13765;51.166;4.466;2022-12-07T04:42:11;7.32;;;3.08;;
25972;SDS011;13765;51.166;4.466;2022-12-07T04:44:38;6.47;;;3.55;;
25972;SDS011;13765;51.166;4.466;2022-12-07T04:47:04;7.60;;;3.10;;
25972;SDS011;13765;51.166;4.466;2022-12-07T04:49:30;10.55;;;4.38;;
25972;SDS011;13765;51.166;4.466;2022-12-07T04:51:55;14.10;;;4.55;;
25972;SDS011;13765;51.166;4.466;2022-12-07T04:54:22;7.18;;;3.25;;
25972;SDS011;13765;51.166;4.466;2022-12-07T04:56:50;9.88;;;3.67;;
25972;SDS011;13765;51.166;4.466;2022-12-07T04:59:16;7.95;;;3.65;;
25972;SDS011;13765;51.166;4.466;2022-12-07T05:01:43;6.40;;;3.65;;
25972;SDS011;13765;51.166;4.466;2022-12-07T05:04:12;4.18;;;2.92;;
25972;SDS011;13765;51.166;4.466;2022-12-07T05:06:41;11.40;;;4.28;;
25972;SDS011;13765;51.166;4.466;2022-12-07T05:09:06;15.43;;;3.97;;
25972;SDS011;13765;51.166;4.466;2022-12-07T05:11:33;14.13;;;3.63;;
25972;SDS011;13765;51.166;4.466;2022-12-07T05:14:06;11.18;;;3.05;;
25972;SDS011;13765;51.166;4.466;2022-12-07T05:16:34;6.45;;;3.50;;
25972;SDS011;13765;51.166;4.466;2022-12-07T05:19:02;10.82;;;3.85;;
25972;SDS011;13765;51.166;4.466;2022-12-07T05:21:28;7.50;;;3.45;;
25972;SDS011;13765;51.166;4.466;2022-12-07T05:23:54;7.82;;;3.35;;
25972;SDS011;13765;51.166;4.466;2022-12-07T05:26:20;8.25;;;3.58;;
25972;SDS011;13765;51.166;4.466;2022-12-07T05:28:49;11.55;;;3.75;;
25972;SDS011;13765;51.166;4.466;2022-12-07T05:31:19;10.88;;;3.22;;
25972;SDS011;13765;51.166;4.466;2022-12-07T05:33:45;14.80;;;3.83;;
25972;SDS011;13765;51.166;4.466;2022-12-07T05:36:15;8.32;;;3.30;;
25972;SDS011;13765;51.166;4.466;2022-12-07T05:38:44;5.13;;;2.78;;
25972;SDS011;13765;51.166;4.466;2022-12-07T05:41:12;6.70;;;3.50;;
25972;SDS011;13765;51.166;4.466;2022-12-07T05:44:01;14.07;;;4.85;;
25972;SDS011;13765;51.166;4.466;2022-12-07T05:46:27;9.98;;;3.22;;
25972;SDS011;13765;51.166;4.466;2022-12-07T05:48:53;7.43;;;3.65;;
25972;SDS011;13765;51.166;4.466;2022-12-07T05:51:21;11.65;;;3.75;;
25972;SDS011;13765;51.166;4.466;2022-12-07T05:53:49;9.63;;;3.40;;
25972;SDS011;13765;51.166;4.466;2022-12-07T05:56:15;6.70;;;3.33;;
25972;SDS011;13765;51.166;4.466;2022-12-07T05:58:40;7.15;;;3.60;;
25972;SDS011;13765;51.166;4.466;2022-12-07T06:01:24;7.63;;;3.55;;
25972;SDS011;13765;51.166;4.466;2022-12-07T06:03:53;12.82;;;3.03;;
25972;SDS011;13765;51.166;4.466;2022-12-07T06:06:21;10.90;;;3.10;;
25972;SDS011;13765;51.166;4.466;2022-12-07T06:08:51;6.45;;;2.83;;
25972;SDS011;13765;51.166;4.466;2022-12-07T06:11:18;10.10;;;2.58;;
25972;SDS011;13765;51.166;4.466;2022-12-07T06:14:02;9.13;;;3.70;;
25972;SDS011;13765;51.166;4.466;2022-12-07T06:16:28;11.15;;;3.42;;
25972;SDS011;13765;51.166;4.466;2022-12-07T06:18:56;11.88;;;4.20;;
25972;SDS011;13765;51.166;4.466;2022-12-07T06:21:24;9.25;;;3.88;;
25972;SDS011;13765;51.166;4.466;2022-12-07T06:23:51;16.20;;;4.38;;
25972;SDS011;13765;51.166;4.466;2022-12-07T06:26:20;17.92;;;4.05;;
25972;SDS011;13765;51.166;4.466;2022-12-07T06:28:46;5.55;;;2.75;;
25972;SDS011;13765;51.166;4.466;2022-12-07T06:31:15;9.18;;;4.03;;
25972;SDS011;13765;51.166;4.466;2022-12-07T06:33:44;4.97;;;2.60;;
25972;SDS011;13765;51.166;4.466;2022-12-07T06:36:10;9.43;;;3.53;;
25972;SDS011;13765;51.166;4.466;2022-12-07T06:38:39;10.20;;;4.18;;
25972;SDS011;13765;51.166;4.466;2022-12-07T06:41:05;13.93;;;4.13;;
25972;SDS011;13765;51.166;4.466;2022-12-07T06:43:34;7.82;;;3.00;;
25972;SDS011;13765;51.166;4.466;2022-12-07T06:46:05;6.57;;;3.00;;
25972;SDS011;13765;51.166;4.466;2022-12-07T06:48:30;8.90;;;4.22;;
25972;SDS011;13765;51.166;4.466;2022-12-07T06:50:59;6.45;;;3.08;;
25972;SDS011;13765;51.166;4.466;2022-12-07T06:53:28;12.48;;;3.60;;
25972;SDS011;13765;51.166;4.466;2022-12-07T06:55:54;5.80;;;3.05;;
25972;SDS011;13765;51.166;4.466;2022-12-07T06:58:19;4.43;;;2.30;;
25972;SDS011;13765;51.166;4.466;2022-12-07T07:00:48;7.20;;;3.03;;
25972;SDS011;13765;51.166;4.466;2022-12-07T07:03:14;6.22;;;2.50;;
25972;SDS011;13765;51.166;4.466;2022-12-07T07:05:43;8.50;;;3.10;;
25972;SDS011;13765;51.166;4.466;2022-12-07T07:08:10;4.00;;;2.88;;
25972;SDS011;13765;51.166;4.466;2022-12-07T07:10:39;9.10;;;3.15;;
25972;SDS011;13765;51.166;4.466;2022-12-07T07:13:07;12.05;;;2.92;;
25972;SDS011;13765;51.166;4.466;2022-12-07T07:15:33;10.02;;;3.53;;
25972;SDS011;13765;51.166;4.466;2022-12-07T07:18:00;12.63;;;3.65;;
25972;SDS011;13765;51.166;4.466;2022-12-07T07:20:26;13.23;;;3.40;;
25972;SDS011;13765;51.166;4.466;2022-12-07T07:22:56;16.23;;;5.10;;
25972;SDS011;13765;51.166;4.466;2022-12-07T07:25:27;13.35;;;4.55;;
25972;SDS011;13765;51.166;4.466;2022-12-07T07:27:53;8.27;;;3.80;;
25972;SDS011;13765;51.166;4.466;2022-12-07T07:30:21;14.27;;;4.85;;
25972;SDS011;13765;51.166;4.466;2022-12-07T07:32:47;10.75;;;4.28;;
25972;SDS011;13765;51.166;4.466;2022-12-07T07:35:16;9.25;;;4.30;;
25972;SDS011;13765;51.166;4.466;2022-12-07T07:37:50;9.77;;;4.22;;
25972;SDS011;13765;51.166;4.466;2022-12-07T07:40:17;14.00;;;4.47;;
25972;SDS011;13765;51.166;4.466;2022-12-07T07:42:48;9.15;;;3.95;;
25972;SDS011;13765;51.166;4.466;2022-12-07T07:45:15;12.63;;;4.38;;
25972;SDS011;13765;51.166;4.466;2022-12-07T07:47:42;15.18;;;5.60;;
25972;SDS011;13765;51.166;4.466;2022-12-07T07:50:08;14.77;;;6.25;;
25972;SDS011;13765;51.166;4.466;2022-12-07T07:52:34;12.45;;;5.20;;
25972;SDS011;13765;51.166;4.466;2022-12-07T07:55:02;15.45;;;4.85;;
25972;SDS011;13765;51.166;4.466;2022-12-07T07:57:32;16.83;;;5.38;;
25972;SDS011;13765;51.166;4.466;2022-12-07T08:00:00;13.35;;;5.50;;
25972;SDS011;13765;51.166;4.466;2022-12-07T08:02:28;17.85;;;5.43;;
25972;SDS011;13765;51.166;4.466;2022-12-07T08:04:54;7.40;;;3.90;;
25972;SDS011;13765;51.166;4.466;2022-12-07T08:07:20;12.52;;;5.22;;
25972;SDS011;13765;51.166;4.466;2022-12-07T08:09:48;18.50;;;5.63;;
25972;SDS011;13765;51.166;4.466;2022-12-07T08:12:14;9.18;;;4.03;;
25972;SDS011;13765;51.166;4.466;2022-12-07T08:14:39;16.67;;;4.90;;
25972;SDS011;13765;51.166;4.466;2022-12-07T08:17:09;12.38;;;4.57;;
25972;SDS011;13765;51.166;4.466;2022-12-07T08:19:37;14.48;;;5.13;;
25972;SDS011;13765;51.166;4.466;2022-12-07T08:22:04;13.32;;;4.95;;
25972;SDS011;13765;51.166;4.466;2022-12-07T08:24:32;18.83;;;6.15;;
25972;SDS011;13765;51.166;4.466;2022-12-07T08:26:59;15.00;;;5.13;;
25972;SDS011;13765;51.166;4.466;2022-12-07T08:29:25;16.98;;;4.65;;
25972;SDS011;13765;51.166;4.466;2022-12-07T08:31:51;17.35;;;5.40;;
25972;SDS011;13765;51.166;4.466;2022-12-07T08:34:19;13.55;;;4.68;;
25972;SDS011;13765;51.166;4.466;2022-12-07T08:36:44;18.83;;;5.80;;
25972;SDS011;13765;51.166;4.466;2022-12-07T08:39:13;14.55;;;4.50;;
25972;SDS011;13765;51.166;4.466;2022-12-07T08:41:38;6.97;;;3.55;;
25972;SDS011;13765;51.166;4.466;2022-12-07T08:44:05;12.20;;;4.18;;
25972;SDS011;13765;51.166;4.466;2022-12-07T08:46:37;5.18;;;3.25;;
25972;SDS011;13765;51.166;4.466;2022-12-07T08:49:22;26.63;;;4.20;;
25972;SDS011;13765;51.166;4.466;2022-12-07T08:51:59;7.90;;;2.90;;
25972;SDS011;13765;51.166;4.466;2022-12-07T08:54:26;15.00;;;4.57;;
25972;SDS011;13765;51.166;4.466;2022-12-07T08:56:54;8.77;;;3.10;;
25972;SDS011;13765;51.166;4.466;2022-12-07T08:59:24;8.25;;;3.58;;
25972;SDS011;13765;51.166;4.466;2022-12-07T09:01:53;17.73;;;4.57;;
25972;SDS011;13765;51.166;4.466;2022-12-07T09:04:23;9.88;;;3.45;;
25972;SDS011;13765;51.166;4.466;2022-12-07T09:06:49;10.35;;;3.00;;
25972;SDS011;13765;51.166;4.466;2022-12-07T09:09:17;14.63;;;3.95;;
25972;SDS011;13765;51.166;4.466;2022-12-07T09:11:45;13.90;;;4.80;;
25972;SDS011;13765;51.166;4.466;2022-12-07T09:14:12;17.33;;;4.30;;
25972;SDS011;13765;51.166;4.466;2022-12-07T09:16:40;11.57;;;4.55;;
25972;SDS011;13765;51.166;4.466;2022-12-07T09:19:07;10.98;;;3.67;;
25972;SDS011;13765;51.166;4.466;2022-12-07T09:21:33;12.95;;;4.57;;
25972;SDS011;13765;51.166;4.466;2022-12-07T09:24:01;9.93;;;3.55;;
25972;SDS011;13765;51.166;4.466;2022-12-07T09:26:26;8.43;;;3.38;;
25972;SDS011;13765;51.166;4.466;2022-12-07T09:28:52;9.30;;;4.03;;
25972;SDS011;13765;51.166;4.466;2022-12-07T09:31:20;11.38;;;4.18;;
25972;SDS011;13765;51.166;4.466;2022-12-07T09:33:46;9.57;;;4.35;;
25972;SDS011;13765;51.166;4.466;2022-12-07T09:36:12;18.70;;;6.63;;
25972;SDS011;13765;51.166;4.466;2022-12-07T09:38:40;18.52;;;7.13;;
25972;SDS011;13765;51.166;4.466;2022-12-07T09:41:09;15.73;;;5.75;;
25972;SDS011;13765;51.166;4.466;2022-12-07T09:43:34;25.85;;;7.10;;
25972;SDS011;13765;51.166;4.466;2022-12-07T09:46:02;21.75;;;7.40;;
25972;SDS011;13765;51.166;4.466;2022-12-07T09:48:30;14.07;;;5.53;;
25972;SDS011;13765;51.166;4.466;2022-12-07T09:51:02;15.73;;;5.30;;
25972;SDS011;13765;51.166;4.466;2022-12-07T09:53:37;7.53;;;4.03;;
25972;SDS011;13765;51.166;4.466;2022-12-07T09:56:04;16.85;;;5.63;;
25972;SDS011;13765;51.166;4.466;2022-12-07T09:58:32;14.30;;;4.90;;
25972;SDS011;13765;51.166;4.466;2022-12-07T10:01:11;11.15;;;4.35;;
25972;SDS011;13765;51.166;4.466;2022-12-07T10:03:54;10.00;;;4.40;;
25972;SDS011;13765;51.166;4.466;2022-12-07T10:06:28;18.08;;;5.97;;
25972;SDS011;13765;51.166;4.466;2022-12-07T10:08:55;12.65;;;4.95;;
25972;SDS011;13765;51.166;4.466;2022-12-07T10:11:22;14.10;;;6.25;;
25972;SDS011;13765;51.166;4.466;2022-12-07T10:13:51;14.65;;;4.57;;
25972;SDS011;13765;51.166;4.466;2022-12-07T10:18:51;15.60;;;4.32;;
25972;SDS011;13765;51.166;4.466;2022-12-07T10:21:19;16.50;;;5.40;;
25972;SDS011;13765;51.166;4.466;2022-12-07T10:26:38;12.07;;;4.35;;
25972;SDS011;13765;51.166;4.466;2022-12-07T10:29:26;16.63;;;4.82;;
25972;SDS011;13765;51.166;4.466;2022-12-07T10:34:27;9.27;;;3.55;;
25972;SDS011;13765;51.166;4.466;2022-12-07T10:37:06;12.57;;;4.72;;
25972;SDS011;13765;51.166;4.466;2022-12-07T10:39:41;11.40;;;4.63;;
25972;SDS011;13765;51.166;4.466;2022-12-07T10:42:25;8.35;;;3.38;;
25972;SDS011;13765;51.166;4.466;2022-12-07T10:45:09;10.05;;;4.40;;
25972;SDS011;13765;51.166;4.466;2022-12-07T11:01:32;5.32;;;2.75;;
25972;SDS011;13765;51.166;4.466;2022-12-07T11:04:15;4.00;;;2.22;;
25972;SDS011;13765;51.166;4.466;2022-12-07T11:15:26;12.45;;;3.42;;
25972;SDS011;13765;51.166;4.466;2022-12-07T11:18:27;10.40;;;3.47;;
25972;SDS011;13765;51.166;4.466;2022-12-07T11:37:24;15.55;;;3.53;;
25972;SDS011;13765;51.166;4.466;2022-12-07T11:39:59;9.45;;;3.00;;
25972;SDS011;13765;51.166;4.466;2022-12-07T11:42:53;8.00;;;3.10;;
25972;SDS011;13765;51.166;4.466;2022-12-07T11:45:29;29.80;;;7.80;;
25972;SDS011;13765;51.166;4.466;2022-12-07T11:48:17;19.80;;;4.50;;
25972;SDS011;13765;51.166;4.466;2022-12-07T11:50:50;16.52;;;3.45;;
25972;SDS011;13765;51.166;4.466;2022-12-07T12:00:51;5.45;;;2.72;;
25972;SDS011;13765;51.166;4.466;2022-12-07T12:03:29;10.05;;;1.95;;
25972;SDS011;13765;51.166;4.466;2022-12-07T12:06:19;6.30;;;2.92;;
25972;SDS011;13765;51.166;4.466;2022-12-07T12:08:50;7.07;;;2.95;;
25972;SDS011;13765;51.166;4.466;2022-12-07T12:22:45;5.20;;;1.27;;
25972;SDS011;13765;51.166;4.466;2022-12-07T12:25:21;1.50;;;1.33;;
25972;SDS011;13765;51.166;4.466;2022-12-07T12:27:58;7.38;;;1.55;;
25972;SDS011;13765;51.166;4.466;2022-12-07T12:35:39;3.42;;;1.52;;
25972;SDS011;13765;51.166;4.466;2022-12-07T12:40:50;5.00;;;1.70;;
25972;SDS011;13765;51.166;4.466;2022-12-07T12:48:53;3.55;;;1.77;;
25972;SDS011;13765;51.166;4.466;2022-12-07T12:51:37;2.65;;;1.35;;
25972;SDS011;13765;51.166;4.466;2022-12-07T12:54:08;10.45;;;1.92;;
25972;SDS011;13765;51.166;4.466;2022-12-07T13:08:21;6.22;;;2.45;;
25972;SDS011;13765;51.166;4.466;2022-12-07T13:10:52;4.90;;;1.60;;
25972;SDS011;13765;51.166;4.466;2022-12-07T13:15:48;7.13;;;3.03;;
25972;SDS011;13765;51.166;4.466;2022-12-07T13:23:38;7.10;;;2.88;;
25972;SDS011;13765;51.166;4.466;2022-12-07T13:29:05;6.95;;;2.72;;
25972;SDS011;13765;51.166;4.466;2022-12-07T13:31:46;7.90;;;3.28;;
25972;SDS011;13765;51.166;4.466;2022-12-07T13:34:29;14.02;;;3.35;;
25972;SDS011;13765;51.166;4.466;2022-12-07T13:37:04;9.00;;;3.55;;
25972;SDS011;13765;51.166;4.466;2022-12-07T13:39:58;4.88;;;2.65;;
25972;SDS011;13765;51.166;4.466;2022-12-07T13:44:59;11.75;;;3.55;;
25972;SDS011;13765;51.166;4.466;2022-12-07T13:47:43;8.73;;;3.40;;
25972;SDS011;13765;51.166;4.466;2022-12-07T13:50:23;3.78;;;2.38;;
25972;SDS011;13765;51.166;4.466;2022-12-07T13:52:57;5.55;;;2.45;;
25972;SDS011;13765;51.166;4.466;2022-12-07T13:55:27;4.30;;;2.55;;
25972;SDS011;13765;51.166;4.466;2022-12-07T13:57:54;4.88;;;1.75;;
25972;SDS011;13765;51.166;4.466;2022-12-07T14:00:24;5.60;;;2.53;;
25972;SDS011;13765;51.166;4.466;2022-12-07T14:03:02;7.50;;;2.55;;
25972;SDS011;13765;51.166;4.466;2022-12-07T14:05:48;4.65;;;2.40;;
25972;SDS011;13765;51.166;4.466;2022-12-07T14:08:31;2.60;;;1.27;;
25972;SDS011;13765;51.166;4.466;2022-12-07T14:10:57;3.63;;;1.92;;
25972;SDS011;13765;51.166;4.466;2022-12-07T14:16:00;1.33;;;1.02;;
25972;SDS011;13765;51.166;4.466;2022-12-07T14:18:40;1.85;;;0.88;;
25972;SDS011;13765;51.166;4.466;2022-12-07T14:23:39;3.63;;;1.65;;
25972;SDS011;13765;51.166;4.466;2022-12-07T14:26:13;9.70;;;1.85;;
25972;SDS011;13765;51.166;4.466;2022-12-07T14:28:41;4.30;;;2.13;;
25972;SDS011;13765;51.166;4.466;2022-12-07T14:31:15;3.15;;;1.27;;
25972;SDS011;13765;51.166;4.466;2022-12-07T14:33:49;3.60;;;1.52;;
25972;SDS011;13765;51.166;4.466;2022-12-07T14:36:14;2.35;;;1.05;;
25972;SDS011;13765;51.166;4.466;2022-12-07T14:38:41;3.83;;;1.58;;
25972;SDS011;13765;51.166;4.466;2022-12-07T14:41:11;1.33;;;1.23;;
25972;SDS011;13765;51.166;4.466;2022-12-07T14:44:00;8.43;;;1.25;;
25972;SDS011;13765;51.166;4.466;2022-12-07T14:46:27;1.40;;;1.30;;
25972;SDS011;13765;51.166;4.466;2022-12-07T14:48:53;1.17;;;0.90;;
25972;SDS011;13765;51.166;4.466;2022-12-07T14:51:22;3.08;;;1.33;;
25972;SDS011;13765;51.166;4.466;2022-12-07T14:53:48;7.25;;;1.67;;
25972;SDS011;13765;51.166;4.466;2022-12-07T14:56:17;4.82;;;1.73;;
25972;SDS011;13765;51.166;4.466;2022-12-07T14:58:45;5.18;;;1.95;;
25972;SDS011;13765;51.166;4.466;2022-12-07T15:01:14;3.10;;;1.23;;
25972;SDS011;13765;51.166;4.466;2022-12-07T15:03:40;1.75;;;1.20;;
25972;SDS011;13765;51.166;4.466;2022-12-07T15:06:06;3.67;;;1.40;;
25972;SDS011;13765;51.166;4.466;2022-12-07T15:08:32;3.65;;;1.58;;
25972;SDS011;13765;51.166;4.466;2022-12-07T15:10:58;8.70;;;3.55;;
25972;SDS011;13765;51.166;4.466;2022-12-07T15:13:31;3.95;;;1.88;;
25972;SDS011;13765;51.166;4.466;2022-12-07T15:16:16;5.18;;;1.85;;
25972;SDS011;13765;51.166;4.466;2022-12-07T15:18:45;4.05;;;1.30;;
25972;SDS011;13765;51.166;4.466;2022-12-07T15:21:13;1.58;;;1.48;;
25972;SDS011;13765;51.166;4.466;2022-12-07T15:23:42;2.25;;;1.25;;
25972;SDS011;13765;51.166;4.466;2022-12-07T15:26:09;2.22;;;1.45;;
25972;SDS011;13765;51.166;4.466;2022-12-07T15:28:36;5.85;;;1.98;;
25972;SDS011;13765;51.166;4.466;2022-12-07T15:31:02;2.30;;;1.50;;
25972;SDS011;13765;51.166;4.466;2022-12-07T15:33:30;5.97;;;2.22;;
25972;SDS011;13765;51.166;4.466;2022-12-07T15:35:58;9.38;;;3.92;;
25972;SDS011;13765;51.166;4.466;2022-12-07T15:38:27;10.32;;;2.65;;
25972;SDS011;13765;51.166;4.466;2022-12-07T15:40:55;5.78;;;2.33;;
25972;SDS011;13765;51.166;4.466;2022-12-07T15:43:21;4.82;;;2.35;;
25972;SDS011;13765;51.166;4.466;2022-12-07T15:46:05;4.60;;;1.77;;
25972;SDS011;13765;51.166;4.466;2022-12-07T15:48:33;3.47;;;1.95;;
25972;SDS011;13765;51.166;4.466;2022-12-07T15:51:03;6.38;;;2.05;;
25972;SDS011;13765;51.166;4.466;2022-12-07T15:53:33;4.57;;;2.13;;
25972;SDS011;13765;51.166;4.466;2022-12-07T15:56:05;3.78;;;2.38;;
25972;SDS011;13765;51.166;4.466;2022-12-07T15:58:32;13.20;;;2.15;;
25972;SDS011;13765;51.166;4.466;2022-12-07T16:00:58;11.20;;;2.10;;
25972;SDS011;13765;51.166;4.466;2022-12-07T16:03:24;6.50;;;2.17;;
25972;SDS011;13765;51.166;4.466;2022-12-07T16:05:50;8.25;;;2.75;;
25972;SDS011;13765;51.166;4.466;2022-12-07T16:08:20;10.60;;;2.88;;
25972;SDS011;13765;51.166;4.466;2022-12-07T16:10:47;4.15;;;2.13;;
25972;SDS011;13765;51.166;4.466;2022-12-07T16:13:12;9.27;;;2.50;;
25972;SDS011;13765;51.166;4.466;2022-12-07T16:15:41;8.23;;;3.00;;
25972;SDS011;13765;51.166;4.466;2022-12-07T16:18:10;6.88;;;2.35;;
25972;SDS011;13765;51.166;4.466;2022-12-07T16:20:36;25.17;;;3.60;;
25972;SDS011;13765;51.166;4.466;2022-12-07T16:23:04;6.50;;;2.25;;
25972;SDS011;13765;51.166;4.466;2022-12-07T16:25:31;4.57;;;1.95;;
25972;SDS011;13765;51.166;4.466;2022-12-07T16:27:57;8.23;;;2.85;;
25972;SDS011;13765;51.166;4.466;2022-12-07T16:30:22;3.50;;;1.92;;
25972;SDS011;13765;51.166;4.466;2022-12-07T16:32:48;8.82;;;2.72;;
25972;SDS011;13765;51.166;4.466;2022-12-07T16:35:13;9.50;;;2.38;;
25972;SDS011;13765;51.166;4.466;2022-12-07T16:37:44;7.18;;;2.45;;
25972;SDS011;13765;51.166;4.466;2022-12-07T16:40:10;6.68;;;2.92;;
25972;SDS011;13765;51.166;4.466;2022-12-07T16:42:39;6.30;;;3.28;;
25972;SDS011;13765;51.166;4.466;2022-12-07T16:45:07;7.20;;;2.63;;
25972;SDS011;13765;51.166;4.466;2022-12-07T16:47:39;7.07;;;2.92;;
25972;SDS011;13765;51.166;4.466;2022-12-07T16:50:05;5.57;;;2.70;;
25972;SDS011;13765;51.166;4.466;2022-12-07T16:52:36;5.47;;;2.30;;
25972;SDS011;13765;51.166;4.466;2022-12-07T16:55:06;4.97;;;2.70;;
25972;SDS011;13765;51.166;4.466;2022-12-07T16:57:33;10.73;;;2.05;;
25972;SDS011;13765;51.166;4.466;2022-12-07T16:59:58;3.33;;;1.80;;
25972;SDS011;13765;51.166;4.466;2022-12-07T17:02:28;3.65;;;2.17;;
25972;SDS011;13765;51.166;4.466;2022-12-07T17:04:54;5.05;;;2.33;;
25972;SDS011;13765;51.166;4.466;2022-12-07T17:07:22;6.10;;;2.25;;
25972;SDS011;13765;51.166;4.466;2022-12-07T17:09:48;6.15;;;2.28;;
25972;SDS011;13765;51.166;4.466;2022-12-07T17:12:17;4.53;;;2.22;;
25972;SDS011;13765;51.166;4.466;2022-12-07T17:14:46;3.28;;;1.55;;
25972;SDS011;13765;51.166;4.466;2022-12-07T17:17:30;5.20;;;2.38;;
25972;SDS011;13765;51.166;4.466;2022-12-07T17:19:56;2.10;;;1.60;;
25972;SDS011;13765;51.166;4.466;2022-12-07T17:22:22;23.50;;;8.13;;
25972;SDS011;13765;51.166;4.466;2022-12-07T17:24:48;33.35;;;10.43;;